createdAt,value
2017-08-23T00:00:04.634Z,1014.28
2017-08-23T00:01:17.229Z,1014.31
2017-08-23T00:02:29.804Z,1014.31
2017-08-23T00:03:42.093Z,1014.28
2017-08-23T00:04:54.696Z,1014.34
2017-08-23T00:06:07.311Z,1014.29
2017-08-23T00:07:19.307Z,1014.27
2017-08-23T00:08:31.925Z,1014.27
2017-08-23T00:09:44.223Z,1014.25
2017-08-23T00:10:56.513Z,1014.24
2017-08-23T00:12:09.140Z,1014.2
2017-08-23T00:13:21.661Z,1014.23
2017-08-23T00:14:34.255Z,1014.22
2017-08-23T00:15:46.188Z,1014.2
2017-08-23T00:16:58.797Z,1014.22
2017-08-23T00:18:10.753Z,1014.16
2017-08-23T00:19:23.074Z,1014.18
2017-08-23T00:20:35.628Z,1014.17
2017-08-23T00:21:47.629Z,1014.15
2017-08-23T00:22:59.920Z,1014.15
2017-08-23T00:24:12.489Z,1014.13
2017-08-23T00:25:25.036Z,1014.16
2017-08-23T00:26:37.634Z,1014.2
2017-08-23T00:27:49.895Z,1014.18
2017-08-23T00:29:01.909Z,1014.17
2017-08-23T00:30:14.235Z,1014.17
2017-08-23T00:31:26.782Z,1014.17
2017-08-23T00:32:39.388Z,1014.1
2017-08-23T00:33:51.631Z,1014.14
2017-08-23T00:35:03.918Z,1014.18
2017-08-23T00:36:15.850Z,1014.15
2017-08-23T00:37:28.143Z,1014.15
2017-08-23T00:38:40.745Z,1014.17
2017-08-23T00:39:52.790Z,1014.17
2017-08-23T00:41:05.054Z,1014.15
2017-08-23T00:42:17.050Z,1014.18
2017-08-23T00:43:29.621Z,1014.17
2017-08-23T00:44:42.233Z,1014.13
2017-08-23T00:45:54.819Z,1014.13
2017-08-23T00:47:07.357Z,1014.14
2017-08-23T00:48:20.002Z,1014.15
2017-08-23T00:49:32.578Z,1014.18
2017-08-23T00:50:45.187Z,1014.15
2017-08-23T00:51:57.789Z,1014.14
2017-08-23T00:53:10.015Z,1014.15
2017-08-23T00:54:21.998Z,1014.1
2017-08-23T00:55:34.551Z,1014.08
2017-08-23T00:56:46.572Z,1014.05
2017-08-23T00:57:59.154Z,1014.07
2017-08-23T00:59:11.737Z,1014.08
2017-08-23T01:00:24.314Z,1014.08
2017-08-23T01:01:36.608Z,1014.07
2017-08-23T01:02:49.276Z,1014.06
2017-08-23T01:04:01.797Z,1014.05
2017-08-23T01:05:14.365Z,1014.02
2017-08-23T01:06:26.894Z,1014.06
2017-08-23T01:07:39.475Z,1014.06
2017-08-23T01:08:52.077Z,1014.13
2017-08-23T01:10:04.399Z,1014.11
2017-08-23T01:11:16.931Z,1014.15
2017-08-23T01:12:29.240Z,1014.12
2017-08-23T01:13:41.847Z,1014.12
2017-08-23T01:14:54.450Z,1014.08
2017-08-23T01:16:06.702Z,1014.09
2017-08-23T01:17:19.341Z,1014.09
2017-08-23T01:18:31.915Z,1014.08
2017-08-23T01:19:44.214Z,1014.06
2017-08-23T01:20:56.542Z,1014.1
2017-08-23T01:22:09.090Z,1014.08
2017-08-23T01:23:21.684Z,1014.08
2017-08-23T01:24:34.284Z,1014.07
2017-08-23T01:25:46.901Z,1014.04
2017-08-23T01:26:59.516Z,1014.13
2017-08-23T01:28:11.805Z,1014.09
2017-08-23T01:29:24.383Z,1014.11
2017-08-23T01:30:36.350Z,1014.11
2017-08-23T01:31:48.388Z,1014.11
2017-08-23T01:33:01.016Z,1014.12
2017-08-23T01:34:12.973Z,1014.09
2017-08-23T01:35:25.644Z,1014.1
2017-08-23T01:36:37.866Z,1014.08
2017-08-23T01:37:50.454Z,1014.06
2017-08-23T01:39:03.244Z,1014.04
2017-08-23T01:40:15.791Z,1014.03
2017-08-23T01:41:27.747Z,1014.03
2017-08-23T01:42:40.350Z,1014.02
2017-08-23T01:43:52.653Z,1014.09
2017-08-23T01:45:04.922Z,1014.07
2017-08-23T01:46:17.234Z,1014.04
2017-08-23T01:47:29.856Z,1014.02
2017-08-23T01:48:42.098Z,1014.04
2017-08-23T01:49:54.424Z,1014.02
2017-08-23T01:51:07.012Z,1013.97
2017-08-23T01:52:19.601Z,1013.94
2017-08-23T01:53:32.221Z,1013.93
2017-08-23T01:54:44.782Z,1013.93
2017-08-23T01:55:57.081Z,1013.87
2017-08-23T01:57:09.060Z,1013.9
2017-08-23T01:58:21.678Z,1013.94
2017-08-23T01:59:33.923Z,1013.89
2017-08-23T02:00:45.909Z,1013.92
2017-08-23T02:01:58.205Z,1013.93
2017-08-23T02:03:10.232Z,1013.94
2017-08-23T02:04:22.821Z,1013.91
2017-08-23T02:05:35.398Z,1013.89
2017-08-23T02:06:47.695Z,1013.91
2017-08-23T02:08:00.019Z,1013.91
2017-08-23T02:09:12.635Z,1013.91
2017-08-23T02:10:24.537Z,1013.91
2017-08-23T02:11:37.095Z,1013.94
2017-08-23T02:12:49.668Z,1013.94
2017-08-23T02:14:02.224Z,1013.92
2017-08-23T02:15:14.192Z,1013.92
2017-08-23T02:16:26.485Z,1013.91
2017-08-23T02:17:39.017Z,1013.96
2017-08-23T02:18:51.581Z,1013.98
2017-08-23T02:20:04.208Z,1013.95
2017-08-23T02:21:16.510Z,1013.96
2017-08-23T02:22:29.131Z,1013.96
2017-08-23T02:23:41.492Z,1013.98
2017-08-23T02:24:54.127Z,1013.95
2017-08-23T02:26:06.150Z,1014
2017-08-23T02:27:18.757Z,1013.95
2017-08-23T02:28:31.345Z,1013.95
2017-08-23T02:29:43.937Z,1013.99
2017-08-23T02:30:56.520Z,1013.98
2017-08-23T02:32:09.145Z,1013.97
2017-08-23T02:33:21.699Z,1013.96
2017-08-23T02:34:33.730Z,1013.97
2017-08-23T02:35:46.067Z,1013.93
2017-08-23T02:36:58.392Z,1013.95
2017-08-23T02:38:11.308Z,1013.92
2017-08-23T02:39:22.959Z,1013.92
2017-08-23T02:40:35.282Z,1013.92
2017-08-23T02:41:47.579Z,1013.9
2017-08-23T02:43:00.225Z,1013.9
2017-08-23T02:44:12.864Z,1013.91
2017-08-23T02:45:25.173Z,1013.9
2017-08-23T02:46:37.181Z,1013.92
2017-08-23T02:47:49.729Z,1013.9
2017-08-23T02:49:02.044Z,1013.92
2017-08-23T02:50:14.643Z,1013.9
2017-08-23T02:51:27.244Z,1013.9
2017-08-23T02:52:39.858Z,1013.88
2017-08-23T02:53:52.174Z,1013.87
2017-08-23T02:55:04.802Z,1013.87
2017-08-23T02:56:17.365Z,1013.93
2017-08-23T02:57:29.990Z,1013.93
2017-08-23T02:58:42.333Z,1013.92
2017-08-23T02:59:54.581Z,1013.95
2017-08-23T03:01:07.148Z,1013.91
2017-08-23T03:02:19.737Z,1013.93
2017-08-23T03:03:32.372Z,1013.96
2017-08-23T03:04:44.985Z,1013.95
2017-08-23T03:05:56.657Z,1013.93
2017-08-23T03:07:09.227Z,1013.96
2017-08-23T03:08:21.203Z,1013.95
2017-08-23T03:09:33.823Z,1013.93
2017-08-23T03:10:46.376Z,1013.88
2017-08-23T03:11:58.335Z,1013.88
2017-08-23T03:13:10.616Z,1013.91
2017-08-23T03:14:23.269Z,1013.91
2017-08-23T03:15:35.820Z,1013.91
2017-08-23T03:16:47.512Z,1013.9
2017-08-23T03:17:59.810Z,1013.92
2017-08-23T03:19:12.383Z,1013.95
2017-08-23T03:20:24.665Z,1013.99
2017-08-23T03:21:37.275Z,1013.92
2017-08-23T03:22:49.919Z,1013.93
2017-08-23T03:24:02.192Z,1013.97
2017-08-23T03:25:14.729Z,1013.97
2017-08-23T03:26:27.282Z,1013.97
2017-08-23T03:27:39.891Z,1013.93
2017-08-23T03:28:52.450Z,1013.98
2017-08-23T03:30:05.050Z,1013.99
2017-08-23T03:31:17.326Z,1014.03
2017-08-23T03:32:29.960Z,1014.02
2017-08-23T03:33:42.582Z,1014.03
2017-08-23T03:34:54.899Z,1014.04
2017-08-23T03:36:07.428Z,1014.06
2017-08-23T03:37:19.695Z,1014.03
2017-08-23T03:38:32.445Z,1014.05
2017-08-23T03:39:45.060Z,1014.07
2017-08-23T03:40:57.684Z,1014.08
2017-08-23T03:42:10.281Z,1014.11
2017-08-23T03:43:22.612Z,1014.12
2017-08-23T03:44:34.966Z,1014.1
2017-08-23T03:45:47.538Z,1014.11
2017-08-23T03:46:59.743Z,1014.1
2017-08-23T03:48:12.335Z,1014.12
2017-08-23T03:49:24.950Z,1014.17
2017-08-23T03:50:37.226Z,1014.13
2017-08-23T03:51:49.803Z,1014.16
2017-08-23T03:53:02.107Z,1014.17
2017-08-23T03:54:14.682Z,1014.19
2017-08-23T03:55:26.954Z,1014.15
2017-08-23T03:56:39.584Z,1014.19
2017-08-23T03:57:51.854Z,1014.22
2017-08-23T03:59:04.135Z,1014.2
2017-08-23T04:00:16.727Z,1014.22
2017-08-23T04:01:28.430Z,1014.24
2017-08-23T04:02:40.787Z,1014.22
2017-08-23T04:03:53.022Z,1014.22
2017-08-23T04:05:05.666Z,1014.24
2017-08-23T04:06:18.250Z,1014.22
2017-08-23T04:07:30.870Z,1014.23
2017-08-23T04:08:43.128Z,1014.21
2017-08-23T04:09:55.110Z,1014.2
2017-08-23T04:11:07.103Z,1014.22
2017-08-23T04:12:19.720Z,1014.21
2017-08-23T04:13:32.364Z,1014.23
2017-08-23T04:14:44.256Z,1014.24
2017-08-23T04:15:56.495Z,1014.28
2017-08-23T04:17:09.130Z,1014.25
2017-08-23T04:18:21.706Z,1014.29
2017-08-23T04:19:34.290Z,1014.27
2017-08-23T04:20:46.561Z,1014.27
2017-08-23T04:21:58.839Z,1014.28
2017-08-23T04:23:11.430Z,1014.27
2017-08-23T04:24:23.979Z,1014.29
2017-08-23T04:25:36.354Z,1014.29
2017-08-23T04:26:48.631Z,1014.29
2017-08-23T04:28:00.917Z,1014.3
2017-08-23T04:29:13.468Z,1014.29
2017-08-23T04:30:25.752Z,1014.29
2017-08-23T04:31:38.377Z,1014.29
2017-08-23T04:32:50.671Z,1014.3
2017-08-23T04:34:03.256Z,1014.31
2017-08-23T04:35:15.213Z,1014.31
2017-08-23T04:36:27.479Z,1014.33
2017-08-23T04:37:39.808Z,1014.35
2017-08-23T04:38:52.063Z,1014.26
2017-08-23T04:40:04.723Z,1014.28
2017-08-23T04:41:16.742Z,1014.26
2017-08-23T04:42:29.314Z,1014.33
2017-08-23T04:43:41.955Z,1014.33
2017-08-23T04:44:54.223Z,1014.29
2017-08-23T04:46:06.853Z,1014.31
2017-08-23T04:47:19.464Z,1014.27
2017-08-23T04:48:32.010Z,1014.3
2017-08-23T04:49:44.555Z,1014.31
2017-08-23T04:50:56.852Z,1014.3
2017-08-23T04:52:09.439Z,1014.31
2017-08-23T04:53:21.968Z,1014.33
2017-08-23T04:54:34.540Z,1014.28
2017-08-23T04:55:47.121Z,1014.29
2017-08-23T04:56:59.754Z,1014.31
2017-08-23T04:58:12.082Z,1014.3
2017-08-23T04:59:24.725Z,1014.27
2017-08-23T05:00:37.040Z,1014.27
2017-08-23T05:01:49.342Z,1014.28
2017-08-23T05:03:01.895Z,1014.3
2017-08-23T05:04:14.580Z,1014.29
2017-08-23T05:05:27.124Z,1014.33
2017-08-23T05:06:39.722Z,1014.33
2017-08-23T05:07:51.990Z,1014.35
2017-08-23T05:09:04.246Z,1014.32
2017-08-23T05:10:16.558Z,1014.33
2017-08-23T05:11:28.853Z,1014.35
2017-08-23T05:12:41.447Z,1014.34
2017-08-23T05:13:53.774Z,1014.39
2017-08-23T05:15:06.351Z,1014.35
2017-08-23T05:16:18.742Z,1014.35
2017-08-23T05:17:31.310Z,1014.28
2017-08-23T05:18:43.302Z,1014.25
2017-08-23T05:19:55.822Z,1014.3
2017-08-23T05:21:08.686Z,1014.32
2017-08-23T05:22:21.001Z,1014.33
2017-08-23T05:23:33.625Z,1014.32
2017-08-23T05:24:45.584Z,1014.36
2017-08-23T05:25:58.149Z,1014.35
2017-08-23T05:27:10.721Z,1014.38
2017-08-23T05:28:22.692Z,1014.34
2017-08-23T05:29:35.324Z,1014.33
2017-08-23T05:30:47.949Z,1014.33
2017-08-23T05:31:59.904Z,1014.32
2017-08-23T05:33:12.430Z,1014.34
2017-08-23T05:34:25.097Z,1014.34
2017-08-23T05:35:37.370Z,1014.36
2017-08-23T05:36:49.268Z,1014.37
2017-08-23T05:38:01.559Z,1014.41
2017-08-23T05:39:14.103Z,1014.41
2017-08-23T05:40:26.413Z,1014.41
2017-08-23T05:41:38.348Z,1014.41
2017-08-23T05:42:51.216Z,1014.46
2017-08-23T05:44:03.539Z,1014.45
2017-08-23T05:45:15.798Z,1014.46
2017-08-23T05:46:28.352Z,1014.46
2017-08-23T05:47:40.977Z,1014.45
2017-08-23T05:48:53.549Z,1014.47
2017-08-23T05:50:05.516Z,1014.49
2017-08-23T05:51:17.545Z,1014.51
2017-08-23T05:52:30.180Z,1014.52
2017-08-23T05:53:42.712Z,1014.53
2017-08-23T05:54:55.296Z,1014.49
2017-08-23T05:56:07.595Z,1014.47
2017-08-23T05:57:19.869Z,1014.51
2017-08-23T05:58:32.450Z,1014.52
2017-08-23T05:59:45.022Z,1014.48
2017-08-23T06:00:57.635Z,1014.44
2017-08-23T06:02:10.226Z,1014.47
2017-08-23T06:03:22.522Z,1014.45
2017-08-23T06:04:35.048Z,1014.48
2017-08-23T06:05:47.649Z,1014.51
2017-08-23T06:06:59.907Z,1014.44
2017-08-23T06:08:12.525Z,1014.47
2017-08-23T06:09:25.107Z,1014.49
2017-08-23T06:10:37.717Z,1014.55
2017-08-23T06:11:50.353Z,1014.53
2017-08-23T06:13:02.941Z,1014.52
2017-08-23T06:14:15.575Z,1014.5
2017-08-23T06:15:28.229Z,1014.45
2017-08-23T06:16:40.542Z,1014.47
2017-08-23T06:17:53.116Z,1014.47
2017-08-23T06:19:05.713Z,1014.46
2017-08-23T06:20:18.090Z,1014.45
2017-08-23T06:21:30.125Z,1014.48
2017-08-23T06:22:42.707Z,1014.51
2017-08-23T06:23:54.965Z,1014.46
2017-08-23T06:25:07.565Z,1014.47
2017-08-23T06:26:19.839Z,1014.43
2017-08-23T06:27:32.179Z,1014.45
2017-08-23T06:28:44.822Z,1014.46
2017-08-23T06:29:56.822Z,1014.42
2017-08-23T06:31:09.066Z,1014.44
2017-08-23T06:32:21.283Z,1014.44
2017-08-23T06:33:33.592Z,1014.46
2017-08-23T06:34:45.935Z,1014.47
2017-08-23T06:35:58.201Z,1014.48
2017-08-23T06:37:10.760Z,1014.43
2017-08-23T06:38:23.030Z,1014.37
2017-08-23T06:39:35.260Z,1014.4
2017-08-23T06:40:47.232Z,1014.43
2017-08-23T06:41:59.233Z,1014.46
2017-08-23T06:43:11.770Z,1014.46
2017-08-23T06:44:23.771Z,1014.58
2017-08-23T06:45:36.377Z,1014.56
2017-08-23T06:46:49.033Z,1014.53
2017-08-23T06:48:01.634Z,1014.48
2017-08-23T06:49:14.186Z,1014.47
2017-08-23T06:50:26.796Z,1014.45
2017-08-23T06:51:39.145Z,1014.39
2017-08-23T06:52:51.768Z,1014.36
2017-08-23T06:54:04.337Z,1014.37
2017-08-23T06:55:16.578Z,1014.36
2017-08-23T06:56:29.101Z,1014.41
2017-08-23T06:57:41.670Z,1014.38
2017-08-23T06:58:54.501Z,1014.41
2017-08-23T07:00:06.822Z,1014.44
2017-08-23T07:01:19.123Z,1014.39
2017-08-23T07:02:31.708Z,1014.43
2017-08-23T07:03:44.333Z,1014.36
2017-08-23T07:04:56.645Z,1014.38
2017-08-23T07:06:09.263Z,1014.41
2017-08-23T07:07:21.552Z,1014.4
2017-08-23T07:08:33.857Z,1014.43
2017-08-23T07:09:45.969Z,1014.37
2017-08-23T07:10:58.573Z,1014.43
2017-08-23T07:12:10.818Z,1014.45
2017-08-23T07:13:23.091Z,1014.48
2017-08-23T07:14:35.658Z,1014.55
2017-08-23T07:15:48.271Z,1014.5
2017-08-23T07:17:00.299Z,1014.52
2017-08-23T07:18:12.616Z,1014.51
2017-08-23T07:19:24.872Z,1014.54
2017-08-23T07:20:37.471Z,1014.4
2017-08-23T07:21:50.068Z,1014.35
2017-08-23T07:23:02.726Z,1014.33
2017-08-23T07:24:14.735Z,1014.35
2017-08-23T07:25:27.301Z,1014.34
2017-08-23T07:26:39.601Z,1014.34
2017-08-23T07:27:51.622Z,1014.34
2017-08-23T07:29:03.934Z,1014.34
2017-08-23T07:30:16.480Z,1014.3
2017-08-23T07:31:28.208Z,1014.35
2017-08-23T07:32:40.818Z,1014.3
2017-08-23T07:33:53.142Z,1014.32
2017-08-23T07:35:05.426Z,1014.32
2017-08-23T07:36:17.469Z,1014.33
2017-08-23T07:37:29.753Z,1014.38
2017-08-23T07:38:41.714Z,1014.35
2017-08-23T07:39:54.316Z,1014.37
2017-08-23T07:41:06.355Z,1014.38
2017-08-23T07:42:18.647Z,1014.41
2017-08-23T07:43:31.253Z,1014.36
2017-08-23T07:44:43.586Z,1014.36
2017-08-23T07:45:56.169Z,1014.38
2017-08-23T07:47:08.428Z,1014.41
2017-08-23T07:48:20.687Z,1014.45
2017-08-23T07:49:33.287Z,1014.46
2017-08-23T07:50:45.246Z,1014.45
2017-08-23T07:51:57.255Z,1014.46
2017-08-23T07:53:09.898Z,1014.47
2017-08-23T07:54:22.540Z,1014.52
2017-08-23T07:55:35.089Z,1014.56
2017-08-23T07:56:47.649Z,1014.54
2017-08-23T07:57:59.626Z,1014.56
2017-08-23T07:59:11.607Z,1014.52
2017-08-23T08:00:23.948Z,1014.54
2017-08-23T08:01:35.939Z,1014.47
2017-08-23T08:02:48.488Z,1014.5
2017-08-23T08:04:00.479Z,1014.44
2017-08-23T08:05:13.081Z,1014.42
2017-08-23T08:06:25.699Z,1014.41
2017-08-23T08:07:38.044Z,1014.47
2017-08-23T08:08:50.315Z,1014.48
2017-08-23T08:10:02.675Z,1014.42
2017-08-23T08:11:14.990Z,1014.47
2017-08-23T08:12:27.305Z,1014.47
2017-08-23T08:13:39.625Z,1014.45
2017-08-23T08:14:52.201Z,1014.45
2017-08-23T08:16:04.474Z,1014.52
2017-08-23T08:17:16.736Z,1014.54
2017-08-23T08:18:28.995Z,1014.52
2017-08-23T08:19:41.304Z,1014.5
2017-08-23T08:20:53.977Z,1014.52
2017-08-23T08:22:06.604Z,1014.48
2017-08-23T08:23:18.965Z,1014.45
2017-08-23T08:24:31.557Z,1014.44
2017-08-23T08:25:43.576Z,1014.44
2017-08-23T08:26:56.150Z,1014.41
2017-08-23T08:28:08.125Z,1014.47
2017-08-23T08:29:20.717Z,1014.44
2017-08-23T08:30:33.297Z,1014.48
2017-08-23T08:31:45.623Z,1014.51
2017-08-23T08:32:57.912Z,1014.48
2017-08-23T08:34:09.931Z,1014.5
2017-08-23T08:35:21.960Z,1014.5
2017-08-23T08:36:34.294Z,1014.49
2017-08-23T08:37:46.585Z,1014.52
2017-08-23T08:38:59.215Z,1014.51
2017-08-23T08:40:11.595Z,1014.49
2017-08-23T08:41:23.613Z,1014.47
2017-08-23T08:42:35.872Z,1014.52
2017-08-23T08:43:48.112Z,1014.49
2017-08-23T08:44:59.786Z,1014.44
2017-08-23T08:46:11.778Z,1014.45
2017-08-23T08:47:24.052Z,1014.46
2017-08-23T08:48:36.005Z,1014.48
2017-08-23T08:49:48.516Z,1014.44
2017-08-23T08:51:00.487Z,1014.48
2017-08-23T08:52:12.755Z,1014.47
2017-08-23T08:53:25.013Z,1014.38
2017-08-23T08:54:37.333Z,1014.4
2017-08-23T08:55:49.592Z,1014.43
2017-08-23T08:57:01.839Z,1014.4
2017-08-23T08:58:14.742Z,1014.39
2017-08-23T08:59:27.030Z,1014.37
2017-08-23T09:00:39.009Z,1014.44
2017-08-23T09:01:51.327Z,1014.36
2017-08-23T09:03:03.966Z,1014.33
2017-08-23T09:04:16.213Z,1014.31
2017-08-23T09:05:28.526Z,1014.31
2017-08-23T09:06:40.526Z,1014.31
2017-08-23T09:07:53.126Z,1014.31
2017-08-23T09:09:05.401Z,1014.31
2017-08-23T09:10:17.992Z,1014.26
2017-08-23T09:11:30.270Z,1014.31
2017-08-23T09:12:42.258Z,1014.24
2017-08-23T09:13:54.528Z,1014.28
2017-08-23T09:15:06.879Z,1014.33
2017-08-23T09:16:19.525Z,1014.25
2017-08-23T09:17:31.489Z,1014.31
2017-08-23T09:18:43.436Z,1014.3
2017-08-23T09:19:56.031Z,1014.31
2017-08-23T09:21:08.607Z,1014.35
2017-08-23T09:22:21.237Z,1014.35
2017-08-23T09:23:33.804Z,1014.39
2017-08-23T09:24:46.444Z,1014.36
2017-08-23T09:25:59.051Z,1014.35
2017-08-23T09:27:11.365Z,1014.34
2017-08-23T09:28:23.936Z,1014.31
2017-08-23T09:29:36.245Z,1014.32
2017-08-23T09:30:48.916Z,1014.36
2017-08-23T09:32:01.189Z,1014.3
2017-08-23T09:33:13.482Z,1014.33
2017-08-23T09:34:25.760Z,1014.39
2017-08-23T09:35:38.422Z,1014.39
2017-08-23T09:36:50.722Z,1014.35
2017-08-23T09:38:02.399Z,1014.34
2017-08-23T09:39:14.989Z,1014.36
2017-08-23T09:40:27.556Z,1014.37
2017-08-23T09:41:40.158Z,1014.39
2017-08-23T09:42:51.774Z,1014.45
2017-08-23T09:44:04.325Z,1014.45
2017-08-23T09:45:16.589Z,1014.42
2017-08-23T09:46:29.238Z,1014.38
2017-08-23T09:47:41.835Z,1014.41
2017-08-23T09:48:54.149Z,1014.4
2017-08-23T09:50:06.097Z,1014.44
2017-08-23T09:51:18.385Z,1014.48
2017-08-23T09:52:30.624Z,1014.55
2017-08-23T09:53:43.320Z,1014.62
2017-08-23T09:54:55.608Z,1014.66
2017-08-23T09:56:08.199Z,1014.65
2017-08-23T09:57:20.770Z,1014.65
2017-08-23T09:58:33.341Z,1014.63
2017-08-23T09:59:45.963Z,1014.71
2017-08-23T10:00:58.657Z,1014.75
2017-08-23T10:02:11.260Z,1014.74
2017-08-23T10:03:23.249Z,1014.72
2017-08-23T10:04:35.819Z,1014.69
2017-08-23T10:05:48.151Z,1014.72
2017-08-23T10:07:00.136Z,1014.71
2017-08-23T10:08:12.684Z,1014.68
2017-08-23T10:09:25.280Z,1014.67
2017-08-23T10:10:37.603Z,1014.64
2017-08-23T10:11:50.169Z,1014.64
2017-08-23T10:13:02.432Z,1014.6
2017-08-23T10:14:15.059Z,1014.56
2017-08-23T10:15:26.392Z,1014.52
2017-08-23T10:16:39.068Z,1014.51
2017-08-23T10:17:51.658Z,1014.43
2017-08-23T10:19:04.268Z,1014.42
2017-08-23T10:20:16.573Z,1014.38
2017-08-23T10:21:28.897Z,1014.4
2017-08-23T10:22:41.266Z,1014.35
2017-08-23T10:23:53.509Z,1014.41
2017-08-23T10:25:05.826Z,1014.34
2017-08-23T10:26:18.394Z,1014.28
2017-08-23T10:27:30.112Z,1014.32
2017-08-23T10:28:42.424Z,1014.4
2017-08-23T10:29:54.660Z,1014.43
2017-08-23T10:31:06.960Z,1014.35
2017-08-23T10:32:19.595Z,1014.37
2017-08-23T10:33:32.144Z,1014.41
2017-08-23T10:34:44.169Z,1014.37
2017-08-23T10:35:56.732Z,1014.32
2017-08-23T10:37:09.086Z,1014.28
2017-08-23T10:38:21.123Z,1014.25
2017-08-23T10:39:33.417Z,1014.25
2017-08-23T10:40:45.124Z,1014.23
2017-08-23T10:41:56.766Z,1014.22
2017-08-23T10:43:09.137Z,1014.22
2017-08-23T10:44:21.429Z,1014.19
2017-08-23T10:45:34.012Z,1014.21
2017-08-23T10:46:46.035Z,1014.19
2017-08-23T10:47:57.989Z,1014.2
2017-08-23T10:49:10.283Z,1014.22
2017-08-23T10:50:21.920Z,1014.18
2017-08-23T10:51:34.252Z,1014.22
2017-08-23T10:52:46.832Z,1014.17
2017-08-23T10:53:59.140Z,1014.13
2017-08-23T10:55:11.386Z,1014.12
2017-08-23T10:56:23.407Z,1014.23
2017-08-23T10:57:35.926Z,1014.24
2017-08-23T10:58:48.248Z,1014.2
2017-08-23T11:00:00.486Z,1014.17
2017-08-23T11:01:12.801Z,1014.21
2017-08-23T11:02:25.436Z,1014.22
2017-08-23T11:03:38.087Z,1014.26
2017-08-23T11:04:50.642Z,1014.31
2017-08-23T11:06:02.978Z,1014.26
2017-08-23T11:07:15.614Z,1014.25
2017-08-23T11:08:28.218Z,1014.25
2017-08-23T11:09:40.808Z,1014.12
2017-08-23T11:10:53.104Z,1014.1
2017-08-23T11:12:05.093Z,1014.19
2017-08-23T11:13:17.098Z,1014.15
2017-08-23T11:14:29.364Z,1014.17
2017-08-23T11:15:41.374Z,1014.15
2017-08-23T11:16:53.733Z,1014.18
2017-08-23T11:18:06.332Z,1014.13
2017-08-23T11:19:18.604Z,1014.17
2017-08-23T11:20:31.249Z,1014.16
2017-08-23T11:21:43.869Z,1014.12
2017-08-23T11:22:55.896Z,1014.14
2017-08-23T11:24:08.489Z,1014.19
2017-08-23T11:25:20.214Z,1014.22
2017-08-23T11:26:32.797Z,1014.14
2017-08-23T11:27:45.431Z,1014.1
2017-08-23T11:28:58.032Z,1014.11
2017-08-23T11:30:10.684Z,1014.09
2017-08-23T11:31:22.360Z,1014.07
2017-08-23T11:32:34.970Z,1014.05
2017-08-23T11:33:47.227Z,1014.05
2017-08-23T11:34:59.821Z,1014.06
2017-08-23T11:36:12.425Z,1014.05
2017-08-23T11:37:24.812Z,1014.06
2017-08-23T11:38:37.121Z,1014.04
2017-08-23T11:39:49.399Z,1014.04
2017-08-23T11:41:02.022Z,1014.03
2017-08-23T11:42:14.602Z,1014.02
2017-08-23T11:43:26.968Z,1014.01
2017-08-23T11:44:39.274Z,1014.03
2017-08-23T11:45:51.276Z,1014.03
2017-08-23T11:47:03.261Z,1013.97
2017-08-23T11:48:15.593Z,1014
2017-08-23T11:49:27.584Z,1014.02
2017-08-23T11:50:39.861Z,1014.01
2017-08-23T11:51:51.857Z,1014.03
2017-08-23T11:53:04.426Z,1013.99
2017-08-23T11:54:16.523Z,1013.98
2017-08-23T11:55:28.868Z,1014.02
2017-08-23T11:56:41.225Z,1014.02
2017-08-23T11:57:53.503Z,1014
2017-08-23T11:59:05.844Z,1013.95
2017-08-23T12:00:18.254Z,1013.99
2017-08-23T12:01:30.897Z,1014
2017-08-23T12:02:43.600Z,1013.95
2017-08-23T12:03:55.591Z,1013.93
2017-08-23T12:05:07.917Z,1013.94
2017-08-23T12:06:20.268Z,1013.92
2017-08-23T12:07:32.577Z,1013.93
2017-08-23T12:08:44.972Z,1014.01
2017-08-23T12:09:56.642Z,1013.99
2017-08-23T12:11:08.379Z,1014.03
2017-08-23T12:12:20.632Z,1013.99
2017-08-23T12:13:32.934Z,1014.01
2017-08-23T12:14:45.530Z,1014
2017-08-23T12:15:58.155Z,1013.94
2017-08-23T12:17:10.543Z,1013.95
2017-08-23T12:18:22.587Z,1013.98
2017-08-23T12:19:35.161Z,1013.89
2017-08-23T12:20:47.821Z,1013.88
2017-08-23T12:22:00.396Z,1013.87
2017-08-23T12:23:12.428Z,1013.77
2017-08-23T12:24:24.864Z,1013.78
2017-08-23T12:25:37.203Z,1013.72
2017-08-23T12:26:49.730Z,1013.71
2017-08-23T12:28:02.069Z,1013.62
2017-08-23T12:29:14.627Z,1013.59
2017-08-23T12:30:26.960Z,1013.72
2017-08-23T12:31:39.630Z,1013.7
2017-08-23T12:32:52.221Z,1013.71
2017-08-23T12:34:04.498Z,1013.66
2017-08-23T12:35:17.103Z,1013.65
2017-08-23T12:36:29.406Z,1013.62
2017-08-23T12:37:40.817Z,1013.57
2017-08-23T12:38:53.390Z,1013.55
2017-08-23T12:40:05.981Z,1013.6
2017-08-23T12:41:18.310Z,1013.51
2017-08-23T12:42:30.892Z,1013.53
2017-08-23T12:43:42.261Z,1013.53
2017-08-23T12:44:54.246Z,1013.54
2017-08-23T12:46:06.836Z,1013.54
2017-08-23T12:47:19.134Z,1013.48
2017-08-23T12:48:31.145Z,1013.5
2017-08-23T12:49:43.097Z,1013.51
2017-08-23T12:50:55.737Z,1013.49
2017-08-23T12:52:08.034Z,1013.5
2017-08-23T12:53:20.598Z,1013.48
2017-08-23T12:54:32.586Z,1013.52
2017-08-23T12:55:44.884Z,1013.46
2017-08-23T12:56:57.429Z,1013.49
2017-08-23T12:58:09.680Z,1013.49
2017-08-23T12:59:22.317Z,1013.5
2017-08-23T13:00:34.658Z,1013.49
2017-08-23T13:01:47.009Z,1013.49
2017-08-23T13:02:59.349Z,1013.48
2017-08-23T13:04:11.945Z,1013.49
2017-08-23T13:05:24.230Z,1013.46
2017-08-23T13:06:36.594Z,1013.45
2017-08-23T13:07:48.290Z,1013.51
2017-08-23T13:09:00.604Z,1013.51
2017-08-23T13:10:13.155Z,1013.45
2017-08-23T13:11:25.773Z,1013.47
2017-08-23T13:12:38.331Z,1013.47
2017-08-23T13:13:50.638Z,1013.44
2017-08-23T13:15:03.232Z,1013.43
2017-08-23T13:16:15.562Z,1013.47
2017-08-23T13:17:27.900Z,1013.41
2017-08-23T13:18:39.849Z,1013.43
2017-08-23T13:19:52.150Z,1013.42
2017-08-23T13:21:03.820Z,1013.44
2017-08-23T13:22:16.408Z,1013.45
2017-08-23T13:23:28.783Z,1013.46
2017-08-23T13:24:41.395Z,1013.46
2017-08-23T13:25:53.343Z,1013.44
2017-08-23T13:27:05.721Z,1013.36
2017-08-23T13:28:18.148Z,1013.39
2017-08-23T13:29:30.440Z,1013.39
2017-08-23T13:30:43.043Z,1013.4
2017-08-23T13:31:55.671Z,1013.41
2017-08-23T13:33:07.692Z,1013.41
2017-08-23T13:34:20.019Z,1013.43
2017-08-23T13:35:32.257Z,1013.49
2017-08-23T13:36:44.533Z,1013.48
2017-08-23T13:37:57.109Z,1013.48
2017-08-23T13:39:09.402Z,1013.49
2017-08-23T13:40:21.966Z,1013.51
2017-08-23T13:41:34.267Z,1013.52
2017-08-23T13:42:46.568Z,1013.5
2017-08-23T13:43:59.202Z,1013.46
2017-08-23T13:45:11.529Z,1013.44
2017-08-23T13:46:23.475Z,1013.4
2017-08-23T13:47:35.788Z,1013.4
2017-08-23T13:48:48.159Z,1013.42
2017-08-23T13:50:00.433Z,1013.39
2017-08-23T13:51:12.399Z,1013.44
2017-08-23T13:52:24.083Z,1013.41
2017-08-23T13:53:36.379Z,1013.42
2017-08-23T13:54:48.951Z,1013.34
2017-08-23T13:56:01.571Z,1013.38
2017-08-23T13:57:13.571Z,1013.36
2017-08-23T13:58:26.131Z,1013.39
2017-08-23T13:59:38.474Z,1013.38
2017-08-23T14:00:50.147Z,1013.33
2017-08-23T14:02:02.714Z,1013.34
2017-08-23T14:03:15.282Z,1013.3
2017-08-23T14:04:27.543Z,1013.27
2017-08-23T14:05:39.849Z,1013.25
2017-08-23T14:06:51.852Z,1013.26
2017-08-23T14:08:04.444Z,1013.25
2017-08-23T14:09:16.737Z,1013.23
2017-08-23T14:10:28.367Z,1013.24
2017-08-23T14:11:40.982Z,1013.27
2017-08-23T14:12:52.941Z,1013.24
2017-08-23T14:14:05.192Z,1013.27
2017-08-23T14:15:17.787Z,1013.3
2017-08-23T14:16:30.077Z,1013.27
2017-08-23T14:17:42.682Z,1013.2
2017-08-23T14:18:54.924Z,1013.2
2017-08-23T14:20:07.202Z,1013.12
2017-08-23T14:21:19.246Z,1013.1
2017-08-23T14:22:31.526Z,1013.09
2017-08-23T14:23:44.239Z,1013.1
2017-08-23T14:24:56.878Z,1013.09
2017-08-23T14:26:09.168Z,1013.04
2017-08-23T14:27:21.252Z,1013.02
2017-08-23T14:28:33.592Z,1013.02
2017-08-23T14:29:45.864Z,1013
2017-08-23T14:30:58.418Z,1012.98
2017-08-23T14:32:10.744Z,1013.01
2017-08-23T14:33:23.252Z,1013.03
2017-08-23T14:34:35.936Z,1013.04
2017-08-23T14:35:48.322Z,1012.97
2017-08-23T14:37:01.142Z,1013.01
2017-08-23T14:38:13.106Z,1013